sensor_id;sensor_type;location;lat;lon;timestamp;P1;durP1;ratioP1;P2;durP2;ratioP2
5900;SDS011;2976;49.764;9.796;2023-04-15T00:01:57;4.30;;;2.90;;
5900;SDS011;2976;49.764;9.796;2023-04-15T00:04:23;3.63;;;3.00;;
5900;SDS011;2976;49.764;9.796;2023-04-15T00:06:52;3.40;;;3.10;;
5900;SDS011;2976;49.764;9.796;2023-04-15T00:09:19;3.93;;;3.60;;
5900;SDS011;2976;49.764;9.796;2023-04-15T00:11:45;3.80;;;3.40;;
5900;SDS011;2976;49.764;9.796;2023-04-15T00:14:11;5.67;;;2.90;;
5900;SDS011;2976;49.764;9.796;2023-04-15T00:16:37;3.10;;;2.80;;
5900;SDS011;2976;49.764;9.796;2023-04-15T00:19:03;4.20;;;3.07;;
5900;SDS011;2976;49.764;9.796;2023-04-15T00:21:28;3.33;;;3.00;;
5900;SDS011;2976;49.764;9.796;2023-04-15T00:23:54;6.53;;;2.83;;
5900;SDS011;2976;49.764;9.796;2023-04-15T00:26:20;2.83;;;2.63;;
5900;SDS011;2976;49.764;9.796;2023-04-15T00:28:46;6.83;;;3.60;;
5900;SDS011;2976;49.764;9.796;2023-04-15T00:31:11;6.73;;;3.67;;
5900;SDS011;2976;49.764;9.796;2023-04-15T00:33:37;5.00;;;4.07;;
5900;SDS011;2976;49.764;9.796;2023-04-15T00:36:03;10.53;;;5.07;;
5900;SDS011;2976;49.764;9.796;2023-04-15T00:38:30;4.07;;;3.70;;
5900;SDS011;2976;49.764;9.796;2023-04-15T00:40:56;3.40;;;3.10;;
5900;SDS011;2976;49.764;9.796;2023-04-15T00:43:21;4.13;;;3.70;;
5900;SDS011;2976;49.764;9.796;2023-04-15T00:45:47;3.50;;;3.20;;
5900;SDS011;2976;49.764;9.796;2023-04-15T00:48:12;3.63;;;3.27;;
5900;SDS011;2976;49.764;9.796;2023-04-15T00:50:38;4.50;;;3.40;;
5900;SDS011;2976;49.764;9.796;2023-04-15T00:53:03;4.43;;;3.97;;
5900;SDS011;2976;49.764;9.796;2023-04-15T00:55:29;3.47;;;3.17;;
5900;SDS011;2976;49.764;9.796;2023-04-15T00:57:55;4.00;;;3.60;;
5900;SDS011;2976;49.764;9.796;2023-04-15T01:00:21;5.70;;;3.30;;
5900;SDS011;2976;49.764;9.796;2023-04-15T01:02:47;4.43;;;3.00;;
5900;SDS011;2976;49.764;9.796;2023-04-15T01:05:14;4.70;;;3.40;;
5900;SDS011;2976;49.764;9.796;2023-04-15T01:07:41;3.53;;;3.20;;
5900;SDS011;2976;49.764;9.796;2023-04-15T01:10:07;3.40;;;2.60;;
5900;SDS011;2976;49.764;9.796;2023-04-15T01:12:33;4.10;;;3.70;;
5900;SDS011;2976;49.764;9.796;2023-04-15T01:14:59;3.20;;;2.87;;
5900;SDS011;2976;49.764;9.796;2023-04-15T01:17:26;4.17;;;3.73;;
5900;SDS011;2976;49.764;9.796;2023-04-15T01:19:52;4.20;;;3.80;;
5900;SDS011;2976;49.764;9.796;2023-04-15T01:22:20;5.33;;;3.63;;
5900;SDS011;2976;49.764;9.796;2023-04-15T01:24:54;3.57;;;3.27;;
5900;SDS011;2976;49.764;9.796;2023-04-15T01:27:26;3.87;;;3.57;;
5900;SDS011;2976;49.764;9.796;2023-04-15T01:29:52;4.70;;;3.50;;
5900;SDS011;2976;49.764;9.796;2023-04-15T01:32:17;12.20;;;4.30;;
5900;SDS011;2976;49.764;9.796;2023-04-15T01:34:44;5.63;;;3.87;;
5900;SDS011;2976;49.764;9.796;2023-04-15T01:37:09;3.17;;;2.87;;
5900;SDS011;2976;49.764;9.796;2023-04-15T01:39:35;4.80;;;3.50;;
5900;SDS011;2976;49.764;9.796;2023-04-15T01:42:01;4.23;;;3.30;;
5900;SDS011;2976;49.764;9.796;2023-04-15T01:44:27;2.80;;;2.60;;
5900;SDS011;2976;49.764;9.796;2023-04-15T01:46:52;3.50;;;3.20;;
5900;SDS011;2976;49.764;9.796;2023-04-15T01:49:18;3.77;;;2.50;;
5900;SDS011;2976;49.764;9.796;2023-04-15T01:51:43;4.43;;;3.50;;
5900;SDS011;2976;49.764;9.796;2023-04-15T01:54:09;3.20;;;2.90;;
5900;SDS011;2976;49.764;9.796;2023-04-15T01:56:35;6.80;;;3.30;;
5900;SDS011;2976;49.764;9.796;2023-04-15T01:59:01;4.13;;;3.70;;
5900;SDS011;2976;49.764;9.796;2023-04-15T02:01:27;3.70;;;3.30;;
5900;SDS011;2976;49.764;9.796;2023-04-15T02:03:53;6.30;;;3.70;;
5900;SDS011;2976;49.764;9.796;2023-04-15T02:06:18;6.70;;;3.93;;
5900;SDS011;2976;49.764;9.796;2023-04-15T02:08:45;5.03;;;3.80;;
5900;SDS011;2976;49.764;9.796;2023-04-15T02:11:10;12.13;;;4.30;;
5900;SDS011;2976;49.764;9.796;2023-04-15T02:13:36;3.40;;;3.10;;
5900;SDS011;2976;49.764;9.796;2023-04-15T02:16:01;3.53;;;3.23;;
5900;SDS011;2976;49.764;9.796;2023-04-15T02:18:27;4.50;;;3.60;;
5900;SDS011;2976;49.764;9.796;2023-04-15T02:20:53;6.20;;;3.10;;
5900;SDS011;2976;49.764;9.796;2023-04-15T02:23:20;3.90;;;3.43;;
5900;SDS011;2976;49.764;9.796;2023-04-15T02:25:46;4.60;;;3.30;;
5900;SDS011;2976;49.764;9.796;2023-04-15T02:28:11;3.40;;;3.10;;
5900;SDS011;2976;49.764;9.796;2023-04-15T02:30:37;2.43;;;2.23;;
5900;SDS011;2976;49.764;9.796;2023-04-15T02:33:04;2.73;;;2.53;;
5900;SDS011;2976;49.764;9.796;2023-04-15T02:35:31;2.30;;;2.10;;
5900;SDS011;2976;49.764;9.796;2023-04-15T02:37:56;2.97;;;2.67;;
5900;SDS011;2976;49.764;9.796;2023-04-15T02:40:22;2.97;;;2.77;;
5900;SDS011;2976;49.764;9.796;2023-04-15T02:42:48;2.33;;;2.13;;
5900;SDS011;2976;49.764;9.796;2023-04-15T02:45:13;3.00;;;2.30;;
5900;SDS011;2976;49.764;9.796;2023-04-15T02:47:39;5.80;;;2.50;;
5900;SDS011;2976;49.764;9.796;2023-04-15T02:50:09;2.83;;;2.63;;
5900;SDS011;2976;49.764;9.796;2023-04-15T02:52:38;2.73;;;2.53;;
5900;SDS011;2976;49.764;9.796;2023-04-15T02:55:05;4.10;;;2.70;;
5900;SDS011;2976;49.764;9.796;2023-04-15T02:57:31;3.00;;;2.60;;
5900;SDS011;2976;49.764;9.796;2023-04-15T02:59:56;4.00;;;3.70;;
5900;SDS011;2976;49.764;9.796;2023-04-15T03:02:23;3.17;;;2.73;;
5900;SDS011;2976;49.764;9.796;2023-04-15T03:04:48;6.50;;;2.93;;
5900;SDS011;2976;49.764;9.796;2023-04-15T03:07:16;4.00;;;3.60;;
5900;SDS011;2976;49.764;9.796;2023-04-15T03:09:42;3.50;;;3.20;;
5900;SDS011;2976;49.764;9.796;2023-04-15T03:12:07;5.00;;;3.80;;
5900;SDS011;2976;49.764;9.796;2023-04-15T03:14:33;7.33;;;5.07;;
5900;SDS011;2976;49.764;9.796;2023-04-15T03:16:58;4.30;;;3.87;;
5900;SDS011;2976;49.764;9.796;2023-04-15T03:19:24;4.90;;;4.00;;
5900;SDS011;2976;49.764;9.796;2023-04-15T03:21:50;3.83;;;3.43;;
5900;SDS011;2976;49.764;9.796;2023-04-15T03:24:16;6.03;;;4.30;;
5900;SDS011;2976;49.764;9.796;2023-04-15T03:26:41;10.60;;;4.60;;
5900;SDS011;2976;49.764;9.796;2023-04-15T03:29:07;4.50;;;4.10;;
5900;SDS011;2976;49.764;9.796;2023-04-15T03:31:33;5.50;;;4.47;;
5900;SDS011;2976;49.764;9.796;2023-04-15T03:33:58;7.97;;;4.40;;
5900;SDS011;2976;49.764;9.796;2023-04-15T03:36:24;4.03;;;3.63;;
5900;SDS011;2976;49.764;9.796;2023-04-15T03:38:50;8.33;;;3.60;;
5900;SDS011;2976;49.764;9.796;2023-04-15T03:41:15;13.33;;;3.77;;
5900;SDS011;2976;49.764;9.796;2023-04-15T03:43:41;3.63;;;3.30;;
5900;SDS011;2976;49.764;9.796;2023-04-15T03:46:06;6.70;;;3.97;;
5900;SDS011;2976;49.764;9.796;2023-04-15T03:48:32;3.87;;;3.53;;
5900;SDS011;2976;49.764;9.796;2023-04-15T03:50:57;3.80;;;3.37;;
5900;SDS011;2976;49.764;9.796;2023-04-15T03:53:23;7.40;;;4.40;;
5900;SDS011;2976;49.764;9.796;2023-04-15T03:55:48;4.83;;;4.30;;
5900;SDS011;2976;49.764;9.796;2023-04-15T03:58:14;7.20;;;4.50;;
5900;SDS011;2976;49.764;9.796;2023-04-15T04:00:39;5.93;;;4.30;;
5900;SDS011;2976;49.764;9.796;2023-04-15T04:03:06;5.20;;;4.07;;
5900;SDS011;2976;49.764;9.796;2023-04-15T04:05:32;6.37;;;5.17;;
5900;SDS011;2976;49.764;9.796;2023-04-15T04:07:57;6.70;;;4.60;;
5900;SDS011;2976;49.764;9.796;2023-04-15T04:10:23;7.30;;;4.70;;
5900;SDS011;2976;49.764;9.796;2023-04-15T04:12:48;6.90;;;4.90;;
5900;SDS011;2976;49.764;9.796;2023-04-15T04:15:15;6.67;;;4.57;;
5900;SDS011;2976;49.764;9.796;2023-04-15T04:17:41;6.27;;;4.93;;
5900;SDS011;2976;49.764;9.796;2023-04-15T04:20:06;5.53;;;4.53;;
5900;SDS011;2976;49.764;9.796;2023-04-15T04:22:36;5.37;;;4.60;;
5900;SDS011;2976;49.764;9.796;2023-04-15T04:25:05;6.67;;;4.73;;
5900;SDS011;2976;49.764;9.796;2023-04-15T04:27:32;7.40;;;4.80;;
5900;SDS011;2976;49.764;9.796;2023-04-15T04:29:58;5.53;;;4.67;;
5900;SDS011;2976;49.764;9.796;2023-04-15T04:32:23;8.67;;;6.23;;
5900;SDS011;2976;49.764;9.796;2023-04-15T04:34:49;5.80;;;4.93;;
5900;SDS011;2976;49.764;9.796;2023-04-15T04:37:15;8.20;;;5.20;;
5900;SDS011;2976;49.764;9.796;2023-04-15T04:39:40;7.23;;;5.30;;
5900;SDS011;2976;49.764;9.796;2023-04-15T04:42:06;8.23;;;5.10;;
5900;SDS011;2976;49.764;9.796;2023-04-15T04:44:31;8.10;;;5.10;;
5900;SDS011;2976;49.764;9.796;2023-04-15T04:46:57;6.83;;;5.00;;
5900;SDS011;2976;49.764;9.796;2023-04-15T04:49:22;7.10;;;5.13;;
5900;SDS011;2976;49.764;9.796;2023-04-15T04:51:48;5.80;;;4.83;;
5900;SDS011;2976;49.764;9.796;2023-04-15T04:54:13;7.63;;;4.57;;
5900;SDS011;2976;49.764;9.796;2023-04-15T04:56:39;6.23;;;4.10;;
5900;SDS011;2976;49.764;9.796;2023-04-15T04:59:04;9.57;;;4.90;;
5900;SDS011;2976;49.764;9.796;2023-04-15T05:01:31;8.20;;;5.43;;
5900;SDS011;2976;49.764;9.796;2023-04-15T05:03:56;6.57;;;4.50;;
5900;SDS011;2976;49.764;9.796;2023-04-15T05:06:22;5.77;;;4.97;;
5900;SDS011;2976;49.764;9.796;2023-04-15T05:08:47;4.50;;;4.10;;
5900;SDS011;2976;49.764;9.796;2023-04-15T05:11:13;4.73;;;3.80;;
5900;SDS011;2976;49.764;9.796;2023-04-15T05:13:38;5.10;;;3.57;;
5900;SDS011;2976;49.764;9.796;2023-04-15T05:16:04;4.10;;;3.53;;
5900;SDS011;2976;49.764;9.796;2023-04-15T05:18:30;5.90;;;4.13;;
5900;SDS011;2976;49.764;9.796;2023-04-15T05:20:56;9.30;;;3.97;;
5900;SDS011;2976;49.764;9.796;2023-04-15T05:23:22;6.17;;;4.17;;
5900;SDS011;2976;49.764;9.796;2023-04-15T05:25:47;5.00;;;4.30;;
5900;SDS011;2976;49.764;9.796;2023-04-15T05:28:13;5.47;;;3.77;;
5900;SDS011;2976;49.764;9.796;2023-04-15T05:30:38;5.07;;;4.30;;
5900;SDS011;2976;49.764;9.796;2023-04-15T05:33:04;4.13;;;3.57;;
5900;SDS011;2976;49.764;9.796;2023-04-15T05:35:30;5.90;;;3.87;;
5900;SDS011;2976;49.764;9.796;2023-04-15T05:37:55;9.97;;;3.47;;
5900;SDS011;2976;49.764;9.796;2023-04-15T05:40:21;5.50;;;3.90;;
5900;SDS011;2976;49.764;9.796;2023-04-15T05:42:46;7.33;;;3.87;;
5900;SDS011;2976;49.764;9.796;2023-04-15T05:45:12;4.90;;;4.50;;
5900;SDS011;2976;49.764;9.796;2023-04-15T05:47:38;6.47;;;4.43;;
5900;SDS011;2976;49.764;9.796;2023-04-15T05:50:03;6.27;;;4.47;;
5900;SDS011;2976;49.764;9.796;2023-04-15T05:52:30;5.20;;;4.70;;
5900;SDS011;2976;49.764;9.796;2023-04-15T05:54:56;5.70;;;4.27;;
5900;SDS011;2976;49.764;9.796;2023-04-15T05:57:21;5.60;;;4.27;;
5900;SDS011;2976;49.764;9.796;2023-04-15T05:59:47;3.93;;;3.30;;
5900;SDS011;2976;49.764;9.796;2023-04-15T06:02:15;9.53;;;4.53;;
5900;SDS011;2976;49.764;9.796;2023-04-15T06:04:41;4.40;;;3.53;;
5900;SDS011;2976;49.764;9.796;2023-04-15T06:07:07;5.97;;;4.10;;
5900;SDS011;2976;49.764;9.796;2023-04-15T06:09:32;5.70;;;4.67;;
5900;SDS011;2976;49.764;9.796;2023-04-15T06:11:58;6.47;;;3.80;;
5900;SDS011;2976;49.764;9.796;2023-04-15T06:14:25;5.20;;;4.20;;
5900;SDS011;2976;49.764;9.796;2023-04-15T06:16:51;9.97;;;4.47;;
5900;SDS011;2976;49.764;9.796;2023-04-15T06:19:17;6.03;;;3.90;;
5900;SDS011;2976;49.764;9.796;2023-04-15T06:21:43;5.50;;;4.60;;
5900;SDS011;2976;49.764;9.796;2023-04-15T06:24:09;17.23;;;4.30;;
5900;SDS011;2976;49.764;9.796;2023-04-15T06:26:35;12.20;;;3.90;;
5900;SDS011;2976;49.764;9.796;2023-04-15T06:29:01;8.33;;;3.90;;
5900;SDS011;2976;49.764;9.796;2023-04-15T06:31:26;5.27;;;3.07;;
5900;SDS011;2976;49.764;9.796;2023-04-15T06:33:52;6.50;;;3.93;;
5900;SDS011;2976;49.764;9.796;2023-04-15T06:36:17;4.00;;;3.43;;
5900;SDS011;2976;49.764;9.796;2023-04-15T06:38:43;6.83;;;4.13;;
5900;SDS011;2976;49.764;9.796;2023-04-15T06:41:09;3.97;;;3.67;;
5900;SDS011;2976;49.764;9.796;2023-04-15T06:43:35;6.50;;;3.70;;
5900;SDS011;2976;49.764;9.796;2023-04-15T06:46:00;6.20;;;4.00;;
5900;SDS011;2976;49.764;9.796;2023-04-15T06:48:26;4.20;;;3.80;;
5900;SDS011;2976;49.764;9.796;2023-04-15T06:50:51;7.33;;;3.93;;
5900;SDS011;2976;49.764;9.796;2023-04-15T06:53:17;4.80;;;3.90;;
5900;SDS011;2976;49.764;9.796;2023-04-15T06:55:43;6.10;;;4.27;;
5900;SDS011;2976;49.764;9.796;2023-04-15T06:58:08;5.00;;;4.50;;
5900;SDS011;2976;49.764;9.796;2023-04-15T07:00:34;5.93;;;4.00;;
5900;SDS011;2976;49.764;9.796;2023-04-15T07:03:02;4.03;;;3.73;;
5900;SDS011;2976;49.764;9.796;2023-04-15T07:05:29;4.67;;;4.00;;
5900;SDS011;2976;49.764;9.796;2023-04-15T07:07:55;3.90;;;3.60;;
5900;SDS011;2976;49.764;9.796;2023-04-15T07:10:21;3.87;;;3.57;;
5900;SDS011;2976;49.764;9.796;2023-04-15T07:12:46;4.13;;;3.70;;
5900;SDS011;2976;49.764;9.796;2023-04-15T07:15:13;8.10;;;3.63;;
5900;SDS011;2976;49.764;9.796;2023-04-15T07:17:39;4.00;;;3.10;;
5900;SDS011;2976;49.764;9.796;2023-04-15T07:20:05;3.40;;;3.10;;
5900;SDS011;2976;49.764;9.796;2023-04-15T07:22:31;6.80;;;3.83;;
5900;SDS011;2976;49.764;9.796;2023-04-15T07:24:57;6.83;;;3.90;;
5900;SDS011;2976;49.764;9.796;2023-04-15T07:27:23;6.40;;;3.43;;
5900;SDS011;2976;49.764;9.796;2023-04-15T07:29:49;4.20;;;2.67;;
5900;SDS011;2976;49.764;9.796;2023-04-15T07:32:15;6.73;;;3.60;;
5900;SDS011;2976;49.764;9.796;2023-04-15T07:34:41;3.43;;;3.10;;
5900;SDS011;2976;49.764;9.796;2023-04-15T07:37:07;4.57;;;3.97;;
5900;SDS011;2976;49.764;9.796;2023-04-15T07:39:32;3.40;;;3.10;;
5900;SDS011;2976;49.764;9.796;2023-04-15T07:41:58;5.00;;;3.77;;
5900;SDS011;2976;49.764;9.796;2023-04-15T07:44:24;4.27;;;3.90;;
5900;SDS011;2976;49.764;9.796;2023-04-15T07:46:50;4.93;;;3.50;;
5900;SDS011;2976;49.764;9.796;2023-04-15T07:49:16;10.07;;;4.10;;
5900;SDS011;2976;49.764;9.796;2023-04-15T07:51:43;7.30;;;3.90;;
5900;SDS011;2976;49.764;9.796;2023-04-15T07:54:08;4.20;;;3.80;;
5900;SDS011;2976;49.764;9.796;2023-04-15T07:56:34;5.00;;;4.50;;
5900;SDS011;2976;49.764;9.796;2023-04-15T07:59:00;5.30;;;3.87;;
5900;SDS011;2976;49.764;9.796;2023-04-15T08:01:30;6.53;;;4.10;;
5900;SDS011;2976;49.764;9.796;2023-04-15T08:03:56;4.83;;;3.77;;
5900;SDS011;2976;49.764;9.796;2023-04-15T08:06:25;7.40;;;3.67;;
5900;SDS011;2976;49.764;9.796;2023-04-15T08:08:51;3.47;;;3.23;;
5900;SDS011;2976;49.764;9.796;2023-04-15T08:11:18;4.37;;;3.93;;
5900;SDS011;2976;49.764;9.796;2023-04-15T08:13:44;14.13;;;8.70;;
5900;SDS011;2976;49.764;9.796;2023-04-15T08:16:12;40.77;;;19.97;;
5900;SDS011;2976;49.764;9.796;2023-04-15T08:18:41;7.77;;;4.13;;
5900;SDS011;2976;49.764;9.796;2023-04-15T08:21:07;32.23;;;16.13;;
5900;SDS011;2976;49.764;9.796;2023-04-15T08:23:33;11.30;;;5.77;;
5900;SDS011;2976;49.764;9.796;2023-04-15T08:25:58;15.17;;;8.73;;
5900;SDS011;2976;49.764;9.796;2023-04-15T08:28:24;6.20;;;4.03;;
5900;SDS011;2976;49.764;9.796;2023-04-15T08:30:51;4.33;;;3.20;;
5900;SDS011;2976;49.764;9.796;2023-04-15T08:33:17;4.93;;;3.47;;
5900;SDS011;2976;49.764;9.796;2023-04-15T08:35:42;4.10;;;3.30;;
5900;SDS011;2976;49.764;9.796;2023-04-15T08:38:08;3.60;;;3.20;;
5900;SDS011;2976;49.764;9.796;2023-04-15T08:40:35;7.10;;;4.90;;
5900;SDS011;2976;49.764;9.796;2023-04-15T08:43:06;5.23;;;3.90;;
5900;SDS011;2976;49.764;9.796;2023-04-15T08:45:36;5.10;;;4.00;;
5900;SDS011;2976;49.764;9.796;2023-04-15T08:48:03;2.70;;;2.20;;
5900;SDS011;2976;49.764;9.796;2023-04-15T08:50:30;2.20;;;2.10;;
5900;SDS011;2976;49.764;9.796;2023-04-15T08:53:00;2.00;;;1.90;;
5900;SDS011;2976;49.764;9.796;2023-04-15T08:55:27;2.03;;;1.90;;
5900;SDS011;2976;49.764;9.796;2023-04-15T08:58:00;2.50;;;2.03;;
5900;SDS011;2976;49.764;9.796;2023-04-15T09:00:30;3.20;;;2.00;;
5900;SDS011;2976;49.764;9.796;2023-04-15T09:02:56;5.57;;;3.50;;
5900;SDS011;2976;49.764;9.796;2023-04-15T09:05:23;3.77;;;3.00;;
5900;SDS011;2976;49.764;9.796;2023-04-15T09:07:51;1.80;;;1.70;;
5900;SDS011;2976;49.764;9.796;2023-04-15T09:10:17;2.20;;;1.63;;
5900;SDS011;2976;49.764;9.796;2023-04-15T09:12:43;3.00;;;1.83;;
5900;SDS011;2976;49.764;9.796;2023-04-15T09:15:11;1.97;;;1.47;;
5900;SDS011;2976;49.764;9.796;2023-04-15T09:17:41;1.83;;;1.47;;
5900;SDS011;2976;49.764;9.796;2023-04-15T09:20:08;3.20;;;1.60;;
5900;SDS011;2976;49.764;9.796;2023-04-15T09:22:34;3.00;;;1.53;;
5900;SDS011;2976;49.764;9.796;2023-04-15T09:25:02;2.37;;;2.17;;
5900;SDS011;2976;49.764;9.796;2023-04-15T09:27:28;3.10;;;1.70;;
5900;SDS011;2976;49.764;9.796;2023-04-15T09:29:53;1.40;;;1.40;;
5900;SDS011;2976;49.764;9.796;2023-04-15T09:32:19;2.30;;;2.10;;
5900;SDS011;2976;49.764;9.796;2023-04-15T09:34:47;2.20;;;1.63;;
5900;SDS011;2976;49.764;9.796;2023-04-15T09:37:12;4.70;;;1.33;;
5900;SDS011;2976;49.764;9.796;2023-04-15T09:39:51;2.97;;;1.70;;
5900;SDS011;2976;49.764;9.796;2023-04-15T09:42:17;2.00;;;1.10;;
5900;SDS011;2976;49.764;9.796;2023-04-15T09:44:50;1.53;;;1.43;;
5900;SDS011;2976;49.764;9.796;2023-04-15T09:47:52;1.77;;;1.67;;
5900;SDS011;2976;49.764;9.796;2023-04-15T09:50:11;1.60;;;1.50;;
5900;SDS011;2976;49.764;9.796;2023-04-15T09:52:40;2.53;;;1.80;;
5900;SDS011;2976;49.764;9.796;2023-04-15T09:55:10;1.80;;;1.70;;
5900;SDS011;2976;49.764;9.796;2023-04-15T09:57:37;4.30;;;2.30;;
5900;SDS011;2976;49.764;9.796;2023-04-15T10:00:05;3.63;;;2.20;;
5900;SDS011;2976;49.764;9.796;2023-04-15T10:02:32;2.10;;;2.00;;
5900;SDS011;2976;49.764;9.796;2023-04-15T10:05:01;3.13;;;2.40;;
5900;SDS011;2976;49.764;9.796;2023-04-15T10:07:27;4.07;;;2.77;;
5900;SDS011;2976;49.764;9.796;2023-04-15T10:09:53;2.33;;;2.00;;
5900;SDS011;2976;49.764;9.796;2023-04-15T10:12:20;1.90;;;1.80;;
5900;SDS011;2976;49.764;9.796;2023-04-15T10:14:47;3.97;;;1.80;;
5900;SDS011;2976;49.764;9.796;2023-04-15T10:17:17;2.03;;;1.90;;
5900;SDS011;2976;49.764;9.796;2023-04-15T10:19:46;5.43;;;1.80;;
5900;SDS011;2976;49.764;9.796;2023-04-15T10:22:13;4.10;;;1.57;;
5900;SDS011;2976;49.764;9.796;2023-04-15T10:24:39;1.70;;;1.60;;
5900;SDS011;2976;49.764;9.796;2023-04-15T10:27:05;1.10;;;1.10;;
5900;SDS011;2976;49.764;9.796;2023-04-15T10:29:31;2.67;;;1.33;;
5900;SDS011;2976;49.764;9.796;2023-04-15T10:31:58;2.20;;;1.30;;
5900;SDS011;2976;49.764;9.796;2023-04-15T10:34:24;1.70;;;1.00;;
5900;SDS011;2976;49.764;9.796;2023-04-15T10:36:54;0.90;;;0.90;;
5900;SDS011;2976;49.764;9.796;2023-04-15T10:39:38;4.00;;;1.40;;
5900;SDS011;2976;49.764;9.796;2023-04-15T10:42:09;1.07;;;0.90;;
5900;SDS011;2976;49.764;9.796;2023-04-15T10:44:41;0.90;;;0.90;;
5900;SDS011;2976;49.764;9.796;2023-04-15T10:47:15;0.63;;;0.63;;
5900;SDS011;2976;49.764;9.796;2023-04-15T10:49:54;1.00;;;0.90;;
5900;SDS011;2976;49.764;9.796;2023-04-15T10:52:25;0.67;;;0.67;;
5900;SDS011;2976;49.764;9.796;2023-04-15T10:57:39;0.93;;;0.70;;
5900;SDS011;2976;49.764;9.796;2023-04-15T11:00:13;1.27;;;0.80;;
5900;SDS011;2976;49.764;9.796;2023-04-15T11:02:40;1.13;;;0.67;;
5900;SDS011;2976;49.764;9.796;2023-04-15T11:05:12;0.70;;;0.70;;
5900;SDS011;2976;49.764;9.796;2023-04-15T11:12:53;0.83;;;0.83;;
5900;SDS011;2976;49.764;9.796;2023-04-15T11:15:32;0.93;;;0.93;;
5900;SDS011;2976;49.764;9.796;2023-04-15T11:18:15;1.33;;;0.50;;
5900;SDS011;2976;49.764;9.796;2023-04-15T11:23:17;0.97;;;0.90;;
5900;SDS011;2976;49.764;9.796;2023-04-15T11:25:44;0.77;;;0.70;;
5900;SDS011;2976;49.764;9.796;2023-04-15T11:28:10;1.40;;;0.73;;
5900;SDS011;2976;49.764;9.796;2023-04-15T11:30:37;2.43;;;0.73;;
5900;SDS011;2976;49.764;9.796;2023-04-15T11:33:04;2.17;;;0.90;;
5900;SDS011;2976;49.764;9.796;2023-04-15T11:35:32;2.80;;;0.93;;
5900;SDS011;2976;49.764;9.796;2023-04-15T11:38:02;2.87;;;1.07;;
5900;SDS011;2976;49.764;9.796;2023-04-15T11:40:29;2.30;;;1.00;;
5900;SDS011;2976;49.764;9.796;2023-04-15T11:43:04;0.60;;;0.60;;
5900;SDS011;2976;49.764;9.796;2023-04-15T11:45:46;1.13;;;0.80;;
5900;SDS011;2976;49.764;9.796;2023-04-15T11:48:22;1.03;;;0.70;;
5900;SDS011;2976;49.764;9.796;2023-04-15T11:50:52;0.70;;;0.70;;
5900;SDS011;2976;49.764;9.796;2023-04-15T11:53:19;1.57;;;0.70;;
5900;SDS011;2976;49.764;9.796;2023-04-15T11:55:46;0.83;;;0.83;;
5900;SDS011;2976;49.764;9.796;2023-04-15T11:58:15;0.63;;;0.60;;
5900;SDS011;2976;49.764;9.796;2023-04-15T12:00:52;1.17;;;0.90;;
5900;SDS011;2976;49.764;9.796;2023-04-15T12:13:54;1.47;;;1.40;;
5900;SDS011;2976;49.764;9.796;2023-04-15T12:16:21;2.30;;;1.00;;
5900;SDS011;2976;49.764;9.796;2023-04-15T12:18:51;2.00;;;0.90;;
5900;SDS011;2976;49.764;9.796;2023-04-15T12:21:20;0.70;;;0.70;;
5900;SDS011;2976;49.764;9.796;2023-04-15T12:23:51;0.90;;;0.90;;
5900;SDS011;2976;49.764;9.796;2023-04-15T12:26:18;0.97;;;0.80;;
5900;SDS011;2976;49.764;9.796;2023-04-15T12:29:00;1.60;;;0.80;;
5900;SDS011;2976;49.764;9.796;2023-04-15T12:31:26;0.60;;;0.60;;
5900;SDS011;2976;49.764;9.796;2023-04-15T12:33:53;1.03;;;0.90;;
5900;SDS011;2976;49.764;9.796;2023-04-15T12:36:19;0.93;;;0.90;;
5900;SDS011;2976;49.764;9.796;2023-04-15T12:38:45;0.83;;;0.83;;
5900;SDS011;2976;49.764;9.796;2023-04-15T12:41:10;1.13;;;1.03;;
5900;SDS011;2976;49.764;9.796;2023-04-15T12:43:36;0.90;;;0.90;;
5900;SDS011;2976;49.764;9.796;2023-04-15T12:46:02;1.07;;;1.07;;
5900;SDS011;2976;49.764;9.796;2023-04-15T12:48:28;1.27;;;1.27;;
5900;SDS011;2976;49.764;9.796;2023-04-15T12:50:54;1.10;;;1.00;;
5900;SDS011;2976;49.764;9.796;2023-04-15T12:53:20;1.17;;;1.07;;
5900;SDS011;2976;49.764;9.796;2023-04-15T12:55:45;0.97;;;0.97;;
5900;SDS011;2976;49.764;9.796;2023-04-15T12:58:11;1.30;;;1.30;;
5900;SDS011;2976;49.764;9.796;2023-04-15T13:00:37;0.77;;;0.77;;
5900;SDS011;2976;49.764;9.796;2023-04-15T13:03:03;1.10;;;1.10;;
5900;SDS011;2976;49.764;9.796;2023-04-15T13:05:28;1.00;;;1.00;;
5900;SDS011;2976;49.764;9.796;2023-04-15T13:07:54;1.23;;;1.23;;
5900;SDS011;2976;49.764;9.796;2023-04-15T13:10:19;1.03;;;1.03;;
5900;SDS011;2976;49.764;9.796;2023-04-15T13:12:47;1.10;;;1.10;;
5900;SDS011;2976;49.764;9.796;2023-04-15T13:15:14;1.00;;;1.00;;
5900;SDS011;2976;49.764;9.796;2023-04-15T13:17:43;1.37;;;1.23;;
5900;SDS011;2976;49.764;9.796;2023-04-15T13:20:08;2.30;;;1.37;;
5900;SDS011;2976;49.764;9.796;2023-04-15T13:22:34;1.47;;;1.40;;
5900;SDS011;2976;49.764;9.796;2023-04-15T13:25:00;2.50;;;1.60;;
5900;SDS011;2976;49.764;9.796;2023-04-15T13:27:25;1.60;;;1.50;;
5900;SDS011;2976;49.764;9.796;2023-04-15T13:29:51;2.40;;;1.90;;
5900;SDS011;2976;49.764;9.796;2023-04-15T13:32:17;1.93;;;1.83;;
5900;SDS011;2976;49.764;9.796;2023-04-15T13:34:43;4.90;;;1.50;;
5900;SDS011;2976;49.764;9.796;2023-04-15T13:37:08;1.67;;;1.57;;
5900;SDS011;2976;49.764;9.796;2023-04-15T13:39:34;1.60;;;1.17;;
5900;SDS011;2976;49.764;9.796;2023-04-15T13:41:59;1.07;;;1.07;;
5900;SDS011;2976;49.764;9.796;2023-04-15T13:44:26;3.83;;;1.23;;
5900;SDS011;2976;49.764;9.796;2023-04-15T13:46:52;1.03;;;1.03;;
5900;SDS011;2976;49.764;9.796;2023-04-15T13:49:18;1.23;;;1.23;;
5900;SDS011;2976;49.764;9.796;2023-04-15T13:51:43;1.60;;;1.50;;
5900;SDS011;2976;49.764;9.796;2023-04-15T13:54:09;1.70;;;1.10;;
5900;SDS011;2976;49.764;9.796;2023-04-15T13:56:34;1.30;;;1.30;;
5900;SDS011;2976;49.764;9.796;2023-04-15T13:59:00;1.23;;;1.13;;
5900;SDS011;2976;49.764;9.796;2023-04-15T14:01:27;1.23;;;1.23;;
5900;SDS011;2976;49.764;9.796;2023-04-15T14:03:53;1.17;;;1.10;;
5900;SDS011;2976;49.764;9.796;2023-04-15T14:06:19;2.50;;;1.30;;
5900;SDS011;2976;49.764;9.796;2023-04-15T14:08:44;6.60;;;1.53;;
5900;SDS011;2976;49.764;9.796;2023-04-15T14:11:10;1.47;;;1.37;;
5900;SDS011;2976;49.764;9.796;2023-04-15T14:13:36;1.37;;;1.37;;
5900;SDS011;2976;49.764;9.796;2023-04-15T14:16:01;1.40;;;1.30;;
5900;SDS011;2976;49.764;9.796;2023-04-15T14:18:27;2.13;;;1.50;;
5900;SDS011;2976;49.764;9.796;2023-04-15T14:20:54;1.80;;;1.70;;
5900;SDS011;2976;49.764;9.796;2023-04-15T14:23:20;2.00;;;1.90;;
5900;SDS011;2976;49.764;9.796;2023-04-15T14:25:45;2.30;;;1.20;;
5900;SDS011;2976;49.764;9.796;2023-04-15T14:28:11;1.87;;;1.77;;
5900;SDS011;2976;49.764;9.796;2023-04-15T14:30:37;1.90;;;1.80;;
5900;SDS011;2976;49.764;9.796;2023-04-15T14:33:02;1.87;;;1.77;;
5900;SDS011;2976;49.764;9.796;2023-04-15T14:35:28;1.80;;;1.57;;
5900;SDS011;2976;49.764;9.796;2023-04-15T14:37:54;2.40;;;2.20;;
5900;SDS011;2976;49.764;9.796;2023-04-15T14:40:20;2.00;;;1.90;;
5900;SDS011;2976;49.764;9.796;2023-04-15T14:42:46;2.03;;;1.80;;
5900;SDS011;2976;49.764;9.796;2023-04-15T14:45:11;2.70;;;2.10;;
5900;SDS011;2976;49.764;9.796;2023-04-15T14:47:37;2.20;;;2.10;;
5900;SDS011;2976;49.764;9.796;2023-04-15T14:50:03;2.70;;;2.50;;
5900;SDS011;2976;49.764;9.796;2023-04-15T14:52:31;1.97;;;1.87;;
5900;SDS011;2976;49.764;9.796;2023-04-15T14:55:03;2.67;;;1.70;;
5900;SDS011;2976;49.764;9.796;2023-04-15T14:57:34;1.93;;;1.73;;
5900;SDS011;2976;49.764;9.796;2023-04-15T15:00:01;1.83;;;1.70;;
5900;SDS011;2976;49.764;9.796;2023-04-15T15:02:27;3.10;;;2.30;;
5900;SDS011;2976;49.764;9.796;2023-04-15T15:04:53;1.77;;;1.67;;
5900;SDS011;2976;49.764;9.796;2023-04-15T15:07:19;2.20;;;2.10;;
5900;SDS011;2976;49.764;9.796;2023-04-15T15:09:46;1.93;;;1.83;;
5900;SDS011;2976;49.764;9.796;2023-04-15T15:12:11;1.67;;;1.63;;
5900;SDS011;2976;49.764;9.796;2023-04-15T15:14:37;1.40;;;1.40;;
5900;SDS011;2976;49.764;9.796;2023-04-15T15:17:02;3.93;;;2.80;;
5900;SDS011;2976;49.764;9.796;2023-04-15T15:19:28;2.00;;;1.90;;
5900;SDS011;2976;49.764;9.796;2023-04-15T15:21:54;2.80;;;2.47;;
5900;SDS011;2976;49.764;9.796;2023-04-15T15:24:19;3.33;;;1.87;;
5900;SDS011;2976;49.764;9.796;2023-04-15T15:26:45;1.90;;;1.80;;
5900;SDS011;2976;49.764;9.796;2023-04-15T15:29:10;2.50;;;2.30;;
5900;SDS011;2976;49.764;9.796;2023-04-15T15:31:36;2.53;;;2.33;;
5900;SDS011;2976;49.764;9.796;2023-04-15T15:34:02;2.33;;;2.13;;